createdAt,value
2019-02-25T00:02:26.287Z,12.57
2019-02-25T00:04:54.911Z,13.63
2019-02-25T00:07:23.359Z,9.10
2019-02-25T00:09:51.828Z,9.33
2019-02-25T00:12:20.283Z,10.37
2019-02-25T00:14:48.731Z,9.90
2019-02-25T00:17:17.245Z,10.13
2019-02-25T00:19:45.719Z,13.00
2019-02-25T00:22:14.182Z,13.37
2019-02-25T00:24:42.641Z,14.53
2019-02-25T00:27:11.094Z,16.60
2019-02-25T00:29:39.574Z,12.73
2019-02-25T00:32:08.014Z,9.20
2019-02-25T00:34:36.496Z,9.77
2019-02-25T00:37:04.956Z,9.03
2019-02-25T00:39:33.414Z,8.63
2019-02-25T00:42:01.949Z,10.83
2019-02-25T00:44:30.417Z,10.13
2019-02-25T00:46:59.187Z,9.10
2019-02-25T00:49:27.647Z,9.30
2019-02-25T00:51:56.101Z,8.10
2019-02-25T00:54:24.567Z,8.83
2019-02-25T00:56:53.133Z,8.43
2019-02-25T00:59:21.578Z,7.57
2019-02-25T01:01:50.044Z,8.97
2019-02-25T01:04:18.501Z,8.03
2019-02-25T01:06:46.948Z,9.73
2019-02-25T01:09:15.476Z,9.23
2019-02-25T01:11:43.938Z,9.37
2019-02-25T01:14:12.475Z,8.13
2019-02-25T01:16:40.985Z,11.30
2019-02-25T01:19:12.173Z,9.27
2019-02-25T01:21:40.632Z,9.77
2019-02-25T01:24:09.080Z,11.40
2019-02-25T01:26:37.527Z,9.57
2019-02-25T01:29:05.985Z,10.47
2019-02-25T01:31:34.446Z,9.47
2019-02-25T01:34:02.953Z,9.90
2019-02-25T01:36:31.425Z,9.47
2019-02-25T01:38:59.874Z,11.43
2019-02-25T01:41:28.350Z,10.00
2019-02-25T01:43:56.876Z,10.67
2019-02-25T01:46:25.331Z,10.87
2019-02-25T01:48:53.884Z,10.63
2019-02-25T01:51:22.350Z,9.80
2019-02-25T01:53:50.795Z,8.57
2019-02-25T01:56:19.246Z,10.43
2019-02-25T01:58:47.705Z,10.13
2019-02-25T02:01:16.182Z,10.53
2019-02-25T02:03:44.696Z,10.33
2019-02-25T02:06:13.182Z,12.23
2019-02-25T02:08:44.589Z,8.93
2019-02-25T02:11:13.054Z,8.83
2019-02-25T02:13:41.785Z,9.30
2019-02-25T02:16:10.328Z,8.73
2019-02-25T02:18:38.782Z,8.53
2019-02-25T02:21:07.253Z,8.10
2019-02-25T02:23:35.737Z,10.57
2019-02-25T02:26:04.235Z,14.30
2019-02-25T02:28:32.697Z,8.73
2019-02-25T02:31:01.152Z,8.20
2019-02-25T02:33:29.683Z,9.67
2019-02-25T02:35:58.216Z,10.33
2019-02-25T02:38:26.710Z,8.70
2019-02-25T02:40:55.166Z,9.80
2019-02-25T02:43:23.705Z,8.90
2019-02-25T02:45:57.938Z,9.23
2019-02-25T02:48:29.737Z,9.80
2019-02-25T02:50:58.249Z,8.37
2019-02-25T02:53:26.707Z,10.07
2019-02-25T02:55:55.181Z,10.63
2019-02-25T02:58:23.606Z,9.50
2019-02-25T03:00:52.064Z,7.40
2019-02-25T03:03:20.524Z,9.20
2019-02-25T03:05:48.990Z,9.40
2019-02-25T03:08:17.447Z,7.53
2019-02-25T03:10:45.929Z,9.13
2019-02-25T03:13:14.339Z,9.20
2019-02-25T03:15:42.840Z,7.13
2019-02-25T03:18:11.295Z,7.40
2019-02-25T03:20:39.768Z,9.47
2019-02-25T03:23:08.265Z,9.30
2019-02-25T03:25:36.731Z,9.23
2019-02-25T03:28:05.204Z,9.67
2019-02-25T03:30:33.669Z,9.17
2019-02-25T03:33:02.116Z,10.37
2019-02-25T03:35:30.580Z,11.07
2019-02-25T03:37:59.038Z,9.37
2019-02-25T03:40:27.506Z,8.97
2019-02-25T03:42:55.972Z,9.53
2019-02-25T03:45:24.433Z,8.67
2019-02-25T03:47:52.889Z,9.10
2019-02-25T03:50:21.393Z,8.53
2019-02-25T03:52:49.864Z,8.80
2019-02-25T03:55:19.587Z,12.23
2019-02-25T03:57:48.485Z,8.53
2019-02-25T04:00:26.444Z,10.27
2019-02-25T04:02:54.921Z,13.80
2019-02-25T04:05:26.313Z,15.87
2019-02-25T04:07:54.799Z,15.97
2019-02-25T04:10:23.269Z,14.10
2019-02-25T04:12:51.734Z,13.30
2019-02-25T04:15:24.975Z,15.03
2019-02-25T04:17:53.429Z,11.20
2019-02-25T04:20:21.967Z,12.70
2019-02-25T04:22:50.487Z,11.50
2019-02-25T04:25:19.023Z,11.03
2019-02-25T04:27:47.473Z,12.10
2019-02-25T04:30:16.554Z,14.43
2019-02-25T04:32:44.993Z,11.30
2019-02-25T04:35:14.297Z,11.27
2019-02-25T04:37:42.882Z,11.47
2019-02-25T04:40:15.083Z,10.30
2019-02-25T04:42:43.606Z,8.77
2019-02-25T04:45:17.734Z,8.30
2019-02-25T04:47:46.256Z,9.83
2019-02-25T04:50:14.859Z,11.13
2019-02-25T04:52:43.362Z,9.43
2019-02-25T04:55:13.229Z,9.77
2019-02-25T04:57:41.666Z,7.80
2019-02-25T05:00:18.231Z,9.93
2019-02-25T05:02:46.732Z,8.77
2019-02-25T05:05:15.390Z,9.93
2019-02-25T05:07:43.947Z,8.43
2019-02-25T05:10:14.267Z,10.50
2019-02-25T05:12:44.644Z,10.93
2019-02-25T05:15:14.929Z,9.87
2019-02-25T05:17:43.653Z,9.00
2019-02-25T05:20:12.291Z,9.23
2019-02-25T05:22:40.757Z,11.10
2019-02-25T05:25:10.914Z,11.90
2019-02-25T05:27:39.771Z,10.90
2019-02-25T05:30:17.791Z,8.90
2019-02-25T05:32:46.297Z,9.73
2019-02-25T05:35:14.895Z,9.70
2019-02-25T05:37:43.341Z,8.70
2019-02-25T05:40:19.692Z,8.70
2019-02-25T05:42:48.247Z,10.97
2019-02-25T05:45:17.115Z,9.73
2019-02-25T05:47:45.887Z,10.17
2019-02-25T05:50:21.320Z,11.37
2019-02-25T05:52:49.842Z,13.37
2019-02-25T05:55:18.744Z,11.63
2019-02-25T05:57:47.232Z,11.70
2019-02-25T06:00:22.646Z,12.53
2019-02-25T06:02:51.197Z,16.13
2019-02-25T06:05:19.723Z,11.10
2019-02-25T06:07:48.230Z,11.63
2019-02-25T06:10:16.872Z,14.03
2019-02-25T06:12:45.384Z,11.17
2019-02-25T06:15:18.944Z,11.37
2019-02-25T06:17:47.478Z,13.13
2019-02-25T06:20:16.654Z,12.60
2019-02-25T06:22:46.705Z,13.83
2019-02-25T06:25:16.233Z,12.90
2019-02-25T06:27:44.792Z,11.87
2019-02-25T06:30:20.433Z,10.43
2019-02-25T06:32:48.881Z,15.17
2019-02-25T06:35:17.517Z,13.63
2019-02-25T06:37:46.075Z,11.43
2019-02-25T06:40:19.580Z,13.57
2019-02-25T06:42:48.275Z,18.80
2019-02-25T06:45:19.348Z,17.13
2019-02-25T06:47:47.873Z,17.10
2019-02-25T06:50:16.387Z,12.93
2019-02-25T06:52:44.852Z,11.57
2019-02-25T06:55:17.123Z,13.23
2019-02-25T06:57:45.572Z,12.87
2019-02-25T07:00:16.078Z,14.80
2019-02-25T07:02:44.581Z,16.13
2019-02-25T07:05:27.141Z,25.57
2019-02-25T07:07:57.298Z,23.97
2019-02-25T07:10:43.671Z,23.10
2019-02-25T07:13:13.781Z,18.57
2019-02-25T07:16:01.927Z,17.97
2019-02-25T07:18:40.910Z,12.87
2019-02-25T07:21:11.055Z,14.10
2019-02-25T07:23:58.038Z,19.20
2019-02-25T07:26:46.044Z,17.40
2019-02-25T07:29:31.155Z,17.73
2019-02-25T07:32:09.911Z,19.37
2019-02-25T07:34:49.250Z,14.97
2019-02-25T07:37:19.416Z,14.20
2019-02-25T07:39:58.611Z,14.70
2019-02-25T07:42:37.914Z,12.50
2019-02-25T07:45:13.963Z,14.30
2019-02-25T07:47:53.430Z,13.50
2019-02-25T07:50:26.421Z,12.13
2019-02-25T07:52:59.532Z,11.83
2019-02-25T07:55:41.750Z,10.53
2019-02-25T07:58:29.964Z,10.90
2019-02-25T08:01:06.310Z,13.40
2019-02-25T08:03:45.484Z,10.30
2019-02-25T08:06:30.435Z,10.43
2019-02-25T08:09:03.743Z,10.10
2019-02-25T08:11:39.637Z,10.67
2019-02-25T08:14:12.477Z,9.05
2019-02-25T08:16:51.719Z,10.55
2019-02-25T08:19:30.837Z,10.80
2019-02-25T08:22:09.890Z,8.85
2019-02-25T08:24:42.436Z,10.60
2019-02-25T08:27:17.986Z,10.63
2019-02-25T08:29:48.107Z,11.73
2019-02-25T08:32:35.265Z,11.38
2019-02-25T08:35:12.401Z,14.03
2019-02-25T08:38:03.829Z,11.15
2019-02-25T08:40:39.951Z,11.53
2019-02-25T08:43:17.406Z,10.78
2019-02-25T08:45:57.042Z,10.48
2019-02-25T08:48:29.987Z,10.20
2019-02-25T08:50:58.431Z,11.97
2019-02-25T08:53:26.960Z,11.05
2019-02-25T08:55:55.428Z,12.63
2019-02-25T08:58:23.899Z,12.00
2019-02-25T09:00:52.369Z,11.95
2019-02-25T09:03:20.826Z,12.45
2019-02-25T09:05:52.244Z,12.20
2019-02-25T09:08:21.737Z,11.97
2019-02-25T09:10:50.191Z,14.55
2019-02-25T09:13:18.658Z,15.98
2019-02-25T09:15:47.120Z,12.98
2019-02-25T09:18:15.607Z,14.25
2019-02-25T09:20:44.068Z,13.28
2019-02-25T09:23:12.536Z,13.35
2019-02-25T09:25:41.063Z,17.17
2019-02-25T09:28:09.621Z,14.90
2019-02-25T09:30:38.098Z,19.60
2019-02-25T09:33:06.859Z,18.95
2019-02-25T09:35:35.325Z,14.30
2019-02-25T09:38:06.637Z,18.60
2019-02-25T09:40:35.128Z,17.52
2019-02-25T09:43:03.673Z,14.03
2019-02-25T09:45:32.177Z,17.95
2019-02-25T09:48:00.656Z,18.48
2019-02-25T09:50:29.115Z,16.93
2019-02-25T09:52:57.530Z,14.58
2019-02-25T09:55:26.853Z,14.87
2019-02-25T09:57:55.387Z,14.63
2019-02-25T10:00:23.912Z,17.00
2019-02-25T10:02:52.446Z,14.80
2019-02-25T10:05:20.908Z,13.00
2019-02-25T10:07:49.364Z,13.08
2019-02-25T10:10:19.079Z,13.60
2019-02-25T10:12:47.536Z,14.73
2019-02-25T10:15:18.614Z,14.03
2019-02-25T10:17:47.135Z,15.65
2019-02-25T10:20:15.777Z,13.95
2019-02-25T10:22:44.342Z,13.50
2019-02-25T10:25:15.736Z,15.25
2019-02-25T10:27:44.293Z,16.20
2019-02-25T10:30:17.505Z,15.08
2019-02-25T10:32:46.109Z,14.25
2019-02-25T10:35:24.921Z,17.92
2019-02-25T10:37:53.649Z,15.38
2019-02-25T10:40:24.596Z,14.63
2019-02-25T10:42:52.361Z,16.20
2019-02-25T10:45:24.463Z,16.60
2019-02-25T10:47:57.651Z,14.85
2019-02-25T10:50:23.219Z,17.73
2019-02-25T10:52:51.681Z,17.23
2019-02-25T10:55:29.231Z,16.37
2019-02-25T10:57:59.784Z,18.42
2019-02-25T11:00:28.039Z,15.85
2019-02-25T11:02:59.214Z,15.68
2019-02-25T11:05:30.282Z,15.35
2019-02-25T11:07:58.464Z,15.50
2019-02-25T11:10:37.194Z,14.78
2019-02-25T11:13:05.886Z,15.63
2019-02-25T11:15:36.910Z,16.93
2019-02-25T11:18:07.087Z,13.60
2019-02-25T11:20:37.643Z,12.30
2019-02-25T11:23:05.993Z,11.38
2019-02-25T11:25:34.595Z,13.72
2019-02-25T11:28:04.926Z,12.75
2019-02-25T11:30:33.334Z,12.88
2019-02-25T11:33:01.804Z,12.70
2019-02-25T11:35:30.418Z,13.35
2019-02-25T11:38:01.358Z,12.35
2019-02-25T11:40:31.146Z,14.40
2019-02-25T11:42:59.390Z,13.20
2019-02-25T11:45:27.846Z,12.77
2019-02-25T11:47:56.684Z,10.97
2019-02-25T11:50:25.251Z,10.85
2019-02-25T11:52:53.811Z,10.63
2019-02-25T11:55:22.415Z,10.65
2019-02-25T11:57:50.902Z,10.75
2019-02-25T12:00:29.860Z,10.30
2019-02-25T12:02:58.334Z,11.03
2019-02-25T12:05:26.867Z,13.35
2019-02-25T12:07:55.437Z,10.93
2019-02-25T12:10:23.889Z,9.88
2019-02-25T12:12:52.353Z,11.35
2019-02-25T12:15:24.158Z,11.90
2019-02-25T12:17:52.643Z,12.68
2019-02-25T12:20:21.165Z,12.58
2019-02-25T12:22:49.613Z,8.60
2019-02-25T12:25:25.262Z,8.38
2019-02-25T12:27:53.841Z,10.40
2019-02-25T12:30:26.909Z,8.20
2019-02-25T12:32:55.391Z,9.68
2019-02-25T12:35:24.440Z,8.83
2019-02-25T12:37:52.921Z,8.50
2019-02-25T12:40:21.813Z,6.60
2019-02-25T12:42:50.417Z,7.35
2019-02-25T12:45:19.063Z,7.58
2019-02-25T12:47:47.512Z,10.55
2019-02-25T12:50:17.221Z,9.93
2019-02-25T12:52:45.767Z,7.78
2019-02-25T12:55:15.733Z,8.30
2019-02-25T12:57:44.265Z,7.95
2019-02-25T13:00:16.899Z,12.43
2019-02-25T13:02:45.432Z,8.45
2019-02-25T13:05:18.354Z,9.38
2019-02-25T13:07:46.895Z,8.93
2019-02-25T13:10:16.598Z,7.47
2019-02-25T13:12:45.069Z,7.55
2019-02-25T13:15:16.680Z,10.30
2019-02-25T13:17:45.529Z,8.60
2019-02-25T13:20:15.290Z,8.73
2019-02-25T13:22:43.901Z,8.95
2019-02-25T13:25:21.199Z,8.60
2019-02-25T13:27:49.789Z,6.80
2019-02-25T13:30:20.537Z,7.17
2019-02-25T13:32:49.066Z,8.48
2019-02-25T13:35:17.615Z,7.10
2019-02-25T13:37:46.164Z,8.63
2019-02-25T13:40:18.468Z,7.33
2019-02-25T13:42:47.019Z,4.00
2019-02-25T13:45:17.770Z,4.03
2019-02-25T13:47:46.311Z,4.95
2019-02-25T13:50:16.304Z,4.28
2019-02-25T13:53:00.684Z,4.20
2019-02-25T13:55:17.066Z,4.22
2019-02-25T13:57:45.622Z,4.12
2019-02-25T14:00:21.505Z,3.98
2019-02-25T14:02:50.025Z,3.42
2019-02-25T14:05:18.851Z,2.00
2019-02-25T14:07:47.622Z,2.75
2019-02-25T14:10:17.115Z,1.45
2019-02-25T14:12:45.828Z,2.45
2019-02-25T14:15:17.546Z,5.00
2019-02-25T14:17:46.374Z,2.33
2019-02-25T14:20:17.531Z,3.20
2019-02-25T14:22:46.200Z,4.22
2019-02-25T14:25:20.260Z,2.70
2019-02-25T14:27:48.805Z,2.03
2019-02-25T14:30:20.146Z,2.73
2019-02-25T14:32:53.100Z,3.00
2019-02-25T14:35:20.239Z,3.37
2019-02-25T14:37:48.832Z,5.37
2019-02-25T14:40:21.334Z,4.27
2019-02-25T14:42:52.007Z,3.80
2019-02-25T14:45:21.760Z,5.77
2019-02-25T14:47:55.452Z,3.27
2019-02-25T14:50:21.229Z,4.40
2019-02-25T14:52:50.105Z,4.27
2019-02-25T14:55:18.749Z,3.73
2019-02-25T14:57:47.274Z,5.23
2019-02-25T15:00:21.975Z,4.10
2019-02-25T15:02:51.145Z,3.90
2019-02-25T15:05:21.394Z,2.33
2019-02-25T15:07:51.208Z,2.60
2019-02-25T15:10:20.523Z,3.33
2019-02-25T15:12:49.133Z,3.27
2019-02-25T15:15:20.204Z,3.23
2019-02-25T15:17:50.519Z,6.30
2019-02-25T15:20:23.450Z,5.17
2019-02-25T15:22:52.325Z,3.90
2019-02-25T15:25:23.369Z,2.80
2019-02-25T15:27:51.646Z,3.27
2019-02-25T15:30:28.265Z,2.87
2019-02-25T15:32:58.491Z,2.87
2019-02-25T15:35:31.089Z,2.50
2019-02-25T15:38:00.367Z,3.53
2019-02-25T15:40:32.321Z,2.80
2019-02-25T15:43:03.955Z,3.57
2019-02-25T15:45:35.463Z,2.60
2019-02-25T15:48:06.619Z,5.83
2019-02-25T15:50:35.332Z,5.33
2019-02-25T15:53:05.571Z,4.60
2019-02-25T15:55:35.123Z,3.63
2019-02-25T15:58:03.786Z,3.53
2019-02-25T16:00:35.000Z,4.87
2019-02-25T16:03:03.802Z,3.90
2019-02-25T16:05:36.431Z,3.67
2019-02-25T16:08:05.315Z,4.10
2019-02-25T16:10:33.890Z,5.63
2019-02-25T16:13:04.517Z,5.20
2019-02-25T16:15:33.219Z,8.77
2019-02-25T16:18:02.590Z,5.20
2019-02-25T16:20:32.507Z,6.07
2019-02-25T16:23:02.689Z,8.50
2019-02-25T16:25:34.345Z,6.30
2019-02-25T16:28:03.159Z,6.87
2019-02-25T16:30:31.765Z,10.17
2019-02-25T16:33:02.373Z,7.70
2019-02-25T16:35:30.559Z,4.97
2019-02-25T16:38:00.325Z,8.10
2019-02-25T16:40:31.504Z,8.53
2019-02-25T16:43:00.317Z,6.83
2019-02-25T16:45:34.814Z,10.03
2019-02-25T16:48:00.029Z,11.40
2019-02-25T16:50:28.567Z,11.90
2019-02-25T16:52:57.209Z,15.67
2019-02-25T16:55:27.712Z,9.87
2019-02-25T16:57:56.745Z,7.00
2019-02-25T17:00:29.371Z,8.30
2019-02-25T17:02:59.302Z,12.40
2019-02-25T17:05:27.328Z,10.10
2019-02-25T17:07:56.337Z,8.40
2019-02-25T17:10:27.068Z,6.87
2019-02-25T17:12:56.266Z,5.87
2019-02-25T17:15:26.872Z,9.90
2019-02-25T17:17:58.382Z,13.17
2019-02-25T17:20:27.855Z,14.33
2019-02-25T17:22:56.178Z,15.77
2019-02-25T17:25:26.946Z,18.27
2019-02-25T17:27:54.988Z,22.87
2019-02-25T17:30:24.941Z,24.43
2019-02-25T17:32:53.522Z,19.90
2019-02-25T17:35:25.967Z,13.73
2019-02-25T17:37:57.760Z,15.90
2019-02-25T17:40:24.394Z,11.80
2019-02-25T17:42:54.033Z,10.40
2019-02-25T17:45:27.645Z,15.70
2019-02-25T17:47:58.332Z,11.97
2019-02-25T17:50:25.692Z,19.93
2019-02-25T17:52:54.235Z,10.97
2019-02-25T17:55:25.370Z,17.97
2019-02-25T17:57:56.358Z,13.90
2019-02-25T18:00:31.975Z,12.97
2019-02-25T18:03:03.586Z,15.23
2019-02-25T18:05:33.481Z,12.30
2019-02-25T18:08:02.979Z,11.97
2019-02-25T18:10:32.392Z,12.37
2019-02-25T18:13:02.710Z,12.37
2019-02-25T18:15:32.930Z,13.73
2019-02-25T18:18:01.577Z,9.90
2019-02-25T18:20:30.648Z,14.47
2019-02-25T18:22:59.371Z,9.37
2019-02-25T18:25:28.398Z,10.47
2019-02-25T18:27:57.056Z,14.03
2019-02-25T18:30:28.330Z,17.00
2019-02-25T18:32:58.319Z,13.33
2019-02-25T18:35:27.747Z,14.63
2019-02-25T18:37:59.819Z,9.67
2019-02-25T18:40:29.640Z,12.93
2019-02-25T18:43:00.234Z,12.57
2019-02-25T18:45:29.019Z,14.27
2019-02-25T18:47:57.858Z,13.10
2019-02-25T18:50:28.551Z,13.70
2019-02-25T18:52:58.863Z,12.43
2019-02-25T18:55:29.387Z,12.83
2019-02-25T18:57:58.792Z,14.50
2019-02-25T19:00:35.198Z,10.00
2019-02-25T19:03:04.887Z,11.43
2019-02-25T19:05:33.695Z,9.77
2019-02-25T19:08:04.540Z,11.97
2019-02-25T19:10:33.136Z,15.83
2019-02-25T19:13:01.864Z,18.60
2019-02-25T19:15:30.499Z,24.53
2019-02-25T19:17:59.121Z,19.30
2019-02-25T19:20:27.957Z,16.47
2019-02-25T19:23:00.502Z,13.60
2019-02-25T19:25:27.322Z,18.23
2019-02-25T19:27:56.637Z,15.63
2019-02-25T19:30:27.869Z,15.73
2019-02-25T19:32:56.442Z,17.00
2019-02-25T19:35:27.767Z,16.33
2019-02-25T19:37:55.296Z,12.40
2019-02-25T19:40:24.950Z,18.47
2019-02-25T19:42:54.283Z,21.60
2019-02-25T19:45:24.154Z,18.00
2019-02-25T19:47:52.849Z,15.03
2019-02-25T19:50:25.965Z,14.57
2019-02-25T19:52:55.096Z,16.37
2019-02-25T19:55:23.732Z,15.33
2019-02-25T19:57:52.375Z,22.43
2019-02-25T20:00:27.249Z,17.30
2019-02-25T20:03:05.760Z,14.40
2019-02-25T20:05:33.371Z,17.73
2019-02-25T20:08:02.071Z,10.47
2019-02-25T20:10:30.911Z,11.73
2019-02-25T20:13:00.799Z,13.30
2019-02-25T20:15:29.671Z,11.80
2019-02-25T20:17:58.256Z,12.10
2019-02-25T20:20:28.505Z,9.77
2019-02-25T20:22:57.911Z,10.93
2019-02-25T20:25:28.752Z,12.93
2019-02-25T20:27:57.627Z,11.23
2019-02-25T20:30:28.805Z,10.83
2019-02-25T20:32:58.980Z,13.80
2019-02-25T20:35:31.267Z,12.03
2019-02-25T20:38:00.414Z,15.40
2019-02-25T20:40:30.608Z,15.10
2019-02-25T20:43:00.984Z,13.00
2019-02-25T20:45:33.238Z,11.07
2019-02-25T20:48:02.467Z,14.40
2019-02-25T20:50:31.077Z,14.83
2019-02-25T20:53:04.976Z,11.23
2019-02-25T20:55:31.472Z,10.63
2019-02-25T20:58:00.142Z,13.10
2019-02-25T21:00:28.726Z,16.03
2019-02-25T21:02:57.204Z,14.80
2019-02-25T21:05:27.327Z,12.37
2019-02-25T21:07:57.946Z,12.33
2019-02-25T21:10:27.893Z,11.97
2019-02-25T21:12:57.723Z,12.37
2019-02-25T21:15:26.852Z,12.03
2019-02-25T21:17:57.760Z,9.83
2019-02-25T21:20:26.045Z,10.70
2019-02-25T21:22:58.228Z,9.53
2019-02-25T21:25:26.885Z,9.97
2019-02-25T21:27:59.194Z,14.13
2019-02-25T21:30:26.283Z,12.90
2019-02-25T21:32:56.474Z,11.63
2019-02-25T21:35:27.590Z,12.47
2019-02-25T21:37:55.107Z,13.00
2019-02-25T21:40:26.841Z,12.07
2019-02-25T21:42:56.732Z,13.80
2019-02-25T21:45:28.963Z,14.77
2019-02-25T21:47:58.562Z,11.83
2019-02-25T21:50:30.434Z,13.47
2019-02-25T21:52:56.615Z,12.97
2019-02-25T21:55:27.456Z,12.63
2019-02-25T21:57:57.189Z,15.67
2019-02-25T22:00:31.981Z,13.67
2019-02-25T22:02:58.660Z,13.50
2019-02-25T22:05:27.155Z,14.80
2019-02-25T22:07:58.641Z,13.30
2019-02-25T22:10:25.889Z,15.30
2019-02-25T22:12:54.342Z,15.50
2019-02-25T22:15:22.808Z,15.37
2019-02-25T22:17:53.237Z,17.43
2019-02-25T22:20:22.629Z,19.90
2019-02-25T22:22:54.567Z,18.97
2019-02-25T22:25:25.483Z,16.13
2019-02-25T22:27:53.935Z,12.20
2019-02-25T22:30:22.401Z,13.03
2019-02-25T22:32:50.891Z,10.40
2019-02-25T22:35:19.424Z,14.17
2019-02-25T22:37:52.083Z,11.30
2019-02-25T22:40:18.532Z,10.40
2019-02-25T22:42:49.795Z,10.40
2019-02-25T22:45:21.714Z,8.97
2019-02-25T22:47:50.151Z,10.23
2019-02-25T22:50:18.648Z,9.17
2019-02-25T22:52:47.098Z,11.40
2019-02-25T22:55:17.986Z,9.97
2019-02-25T22:57:48.543Z,10.23
2019-02-25T23:00:34.684Z,14.17
2019-02-25T23:03:03.366Z,11.27
2019-02-25T23:05:32.128Z,13.73
2019-02-25T23:08:00.632Z,10.30
2019-02-25T23:10:29.153Z,12.77
2019-02-25T23:12:57.644Z,9.57
2019-02-25T23:15:29.784Z,11.07
2019-02-25T23:18:05.055Z,11.47
2019-02-25T23:20:27.335Z,10.93
2019-02-25T23:22:57.797Z,9.53
2019-02-25T23:25:27.201Z,10.37
2019-02-25T23:27:57.909Z,13.13
2019-02-25T23:30:26.233Z,11.67
2019-02-25T23:32:54.967Z,11.73
2019-02-25T23:35:25.342Z,11.57
2019-02-25T23:37:56.255Z,11.73
2019-02-25T23:40:24.260Z,13.00
2019-02-25T23:42:52.714Z,13.63
2019-02-25T23:45:23.159Z,15.83
2019-02-25T23:47:55.371Z,13.63
2019-02-25T23:50:21.601Z,15.20
2019-02-25T23:52:50.059Z,15.60
2019-02-25T23:55:19.617Z,12.17
2019-02-25T23:57:48.690Z,14.90
